createdAt,value
2019-06-10T00:00:37.645Z,2.30
2019-06-10T00:01:37.707Z,2.30
2019-06-10T00:02:37.620Z,2.50
2019-06-10T00:03:37.608Z,2.20
2019-06-10T00:04:37.585Z,2.30
2019-06-10T00:05:37.591Z,2.60
2019-06-10T00:06:37.573Z,2.40
2019-06-10T00:07:37.558Z,2.40
2019-06-10T00:08:37.544Z,2.50
2019-06-10T00:09:37.539Z,2.50
2019-06-10T00:10:37.551Z,2.30
2019-06-10T00:11:37.564Z,2.70
2019-06-10T00:12:37.514Z,2.30
2019-06-10T00:13:37.488Z,2.50
2019-06-10T00:14:37.484Z,2.40
2019-06-10T00:15:37.467Z,2.30
2019-06-10T00:16:37.471Z,2.80
2019-06-10T00:17:50.661Z,2.70
2019-06-10T00:18:42.962Z,2.10
2019-06-10T00:19:40.739Z,2.50
2019-06-10T00:20:37.414Z,2.30
2019-06-10T00:21:37.430Z,2.40
2019-06-10T00:22:37.388Z,2.30
2019-06-10T00:23:37.379Z,2.10
2019-06-10T00:24:37.363Z,2.60
2019-06-10T00:25:37.353Z,2.40
2019-06-10T00:26:37.353Z,2.40
2019-06-10T00:27:37.334Z,2.50
2019-06-10T00:28:37.342Z,2.10
2019-06-10T00:29:37.321Z,2.40
2019-06-10T00:30:37.309Z,2.30
2019-06-10T00:31:37.332Z,2.40
2019-06-10T00:32:37.275Z,2.30
2019-06-10T00:33:37.267Z,2.40
2019-06-10T00:34:37.265Z,2.40
2019-06-10T00:35:37.241Z,2.30
2019-06-10T00:36:37.234Z,2.20
2019-06-10T00:37:37.237Z,2.30
2019-06-10T00:38:37.226Z,2.60
2019-06-10T00:39:37.198Z,2.40
2019-06-10T00:40:37.198Z,2.20
2019-06-10T00:41:37.229Z,2.30
2019-06-10T00:42:37.199Z,2.60
2019-06-10T00:43:37.153Z,2.30
2019-06-10T00:44:37.145Z,2.10
2019-06-10T00:45:37.138Z,2.50
2019-06-10T00:46:37.128Z,2.60
2019-06-10T00:47:37.109Z,2.60
2019-06-10T00:48:37.110Z,2.40
2019-06-10T00:49:37.087Z,2.40
2019-06-10T00:50:37.079Z,2.70
2019-06-10T00:51:37.118Z,2.30
2019-06-10T00:52:37.062Z,2.50
2019-06-10T00:53:37.069Z,2.60
2019-06-10T00:54:37.038Z,2.50
2019-06-10T00:55:37.024Z,2.70
2019-06-10T00:56:37.018Z,2.70
2019-06-10T00:57:36.999Z,2.70
2019-06-10T00:58:36.989Z,3.00
2019-06-10T00:59:36.998Z,2.80
2019-06-10T01:00:36.964Z,2.70
2019-06-10T01:01:36.952Z,2.60
2019-06-10T01:02:36.951Z,2.90
2019-06-10T01:03:36.951Z,2.70
2019-06-10T01:04:36.929Z,2.80
2019-06-10T01:05:36.925Z,2.40
2019-06-10T01:06:36.898Z,2.60
2019-06-10T01:07:36.895Z,2.50
2019-06-10T01:08:36.906Z,2.40
2019-06-10T01:09:36.870Z,2.70
2019-06-10T01:10:36.893Z,2.70
2019-06-10T01:11:36.844Z,2.60
2019-06-10T01:12:36.832Z,2.60
2019-06-10T01:13:36.818Z,2.90
2019-06-10T01:14:36.828Z,2.50
2019-06-10T01:15:36.796Z,2.20
2019-06-10T01:16:36.789Z,2.40
2019-06-10T01:17:36.779Z,2.30
2019-06-10T01:18:38.603Z,2.40
2019-06-10T01:19:36.802Z,2.20
2019-06-10T01:20:36.742Z,2.40
2019-06-10T01:21:36.734Z,2.90
2019-06-10T01:22:36.719Z,2.30
2019-06-10T01:23:36.725Z,2.70
2019-06-10T01:24:36.702Z,2.30
2019-06-10T01:25:36.696Z,2.40
2019-06-10T01:26:36.687Z,2.40
2019-06-10T01:27:36.674Z,2.80
2019-06-10T01:28:36.654Z,2.60
2019-06-10T01:29:36.654Z,2.30
2019-06-10T01:30:36.632Z,2.80
2019-06-10T01:31:36.618Z,2.70
2019-06-10T01:32:36.611Z,2.60
2019-06-10T01:33:36.596Z,2.70
2019-06-10T01:34:36.608Z,2.40
2019-06-10T01:35:36.575Z,2.70
2019-06-10T01:36:36.585Z,2.40
2019-06-10T01:37:36.566Z,2.50
2019-06-10T01:38:36.545Z,2.70
2019-06-10T01:39:36.536Z,2.80
2019-06-10T01:40:36.556Z,2.80
2019-06-10T01:41:36.512Z,2.30
2019-06-10T01:42:36.525Z,2.80
2019-06-10T01:43:36.489Z,2.80
2019-06-10T01:44:36.472Z,2.50
2019-06-10T01:45:36.464Z,2.50
2019-06-10T01:46:36.467Z,2.40
2019-06-10T01:47:36.445Z,2.50
2019-06-10T01:48:44.209Z,2.60
2019-06-10T01:49:37.418Z,2.60
2019-06-10T01:50:36.428Z,2.60
2019-06-10T01:51:36.393Z,2.40
2019-06-10T01:52:36.383Z,2.70
2019-06-10T01:53:36.394Z,2.60
2019-06-10T01:54:36.366Z,2.70
2019-06-10T01:55:36.354Z,2.90
2019-06-10T01:56:36.356Z,2.70
2019-06-10T01:57:36.333Z,2.80
2019-06-10T01:58:36.319Z,2.80
2019-06-10T01:59:36.311Z,2.30
2019-06-10T02:00:36.298Z,2.40
2019-06-10T02:01:36.301Z,2.70
2019-06-10T02:02:36.276Z,2.50
2019-06-10T02:03:36.272Z,2.80
2019-06-10T02:04:36.249Z,2.70
2019-06-10T02:05:36.254Z,3.10
2019-06-10T02:06:36.240Z,2.60
2019-06-10T02:07:36.239Z,2.80
2019-06-10T02:08:36.204Z,2.50
2019-06-10T02:09:36.202Z,2.90
2019-06-10T02:10:36.182Z,2.40
2019-06-10T02:11:36.194Z,2.60
2019-06-10T02:12:36.179Z,2.90
2019-06-10T02:13:36.154Z,2.70
2019-06-10T02:14:36.139Z,2.80
2019-06-10T02:15:36.133Z,2.50
2019-06-10T02:16:36.120Z,2.80
2019-06-10T02:17:36.122Z,2.80
2019-06-10T02:18:36.108Z,3.20
2019-06-10T02:19:36.095Z,2.90
2019-06-10T02:20:36.072Z,2.80
2019-06-10T02:21:36.065Z,2.90
2019-06-10T02:22:36.072Z,2.90
2019-06-10T02:23:36.047Z,3.10
2019-06-10T02:24:36.024Z,2.80
2019-06-10T02:25:36.016Z,2.70
2019-06-10T02:26:36.007Z,3.10
2019-06-10T02:27:36.000Z,2.90
2019-06-10T02:28:36.020Z,3.00
2019-06-10T02:29:35.976Z,2.80
2019-06-10T02:30:46.173Z,2.80
2019-06-10T02:31:37.845Z,2.80
2019-06-10T02:32:37.574Z,3.10
2019-06-10T02:33:36.899Z,2.80
2019-06-10T02:34:43.285Z,3.00
2019-06-10T02:35:43.928Z,2.90
2019-06-10T02:36:37.232Z,3.00
2019-06-10T02:37:38.110Z,2.90
2019-06-10T02:38:39.553Z,2.90
2019-06-10T02:39:38.881Z,2.80
2019-06-10T02:40:36.706Z,3.00
2019-06-10T02:41:36.522Z,3.20
2019-06-10T02:42:36.323Z,2.90
2019-06-10T02:43:37.542Z,3.20
2019-06-10T02:44:37.629Z,2.90
2019-06-10T02:45:37.476Z,2.80
2019-06-10T02:46:36.552Z,3.00
2019-06-10T02:47:37.934Z,2.80
2019-06-10T02:48:36.440Z,2.80
2019-06-10T02:49:52.777Z,2.70
2019-06-10T02:50:36.750Z,2.90
2019-06-10T02:51:36.014Z,3.00
2019-06-10T02:52:38.420Z,2.90
2019-06-10T02:53:36.824Z,3.50
2019-06-10T02:54:36.177Z,3.00
2019-06-10T02:55:35.735Z,2.90
2019-06-10T02:56:36.756Z,3.40
2019-06-10T02:57:39.976Z,2.70
2019-06-10T02:58:39.011Z,2.90
2019-06-10T02:59:36.468Z,3.20
2019-06-10T03:00:43.213Z,3.00
2019-06-10T03:01:38.117Z,3.10
2019-06-10T03:02:36.569Z,3.30
2019-06-10T03:03:43.847Z,3.30
2019-06-10T03:04:37.612Z,3.30
2019-06-10T03:05:41.039Z,2.90
2019-06-10T03:06:40.154Z,3.30
2019-06-10T03:07:35.963Z,2.90
2019-06-10T03:08:36.466Z,2.90
2019-06-10T03:09:35.952Z,3.10
2019-06-10T03:10:37.142Z,3.20
2019-06-10T03:11:37.068Z,3.00
2019-06-10T03:12:35.487Z,3.00
2019-06-10T03:13:35.475Z,3.20
2019-06-10T03:14:35.463Z,2.90
2019-06-10T03:15:35.452Z,2.90
2019-06-10T03:16:35.456Z,3.00
2019-06-10T03:17:35.438Z,3.00
2019-06-10T03:18:35.421Z,3.00
2019-06-10T03:19:46.981Z,3.20
2019-06-10T03:20:36.396Z,3.00
2019-06-10T03:21:35.401Z,3.20
2019-06-10T03:22:35.373Z,3.00
2019-06-10T03:23:35.363Z,3.20
2019-06-10T03:24:35.361Z,3.20
2019-06-10T03:25:35.341Z,3.10
2019-06-10T03:26:35.338Z,3.40
2019-06-10T03:27:35.330Z,2.90
2019-06-10T03:28:35.318Z,3.10
2019-06-10T03:29:35.306Z,2.70
2019-06-10T03:30:47.250Z,3.00
2019-06-10T03:31:41.804Z,3.10
2019-06-10T03:32:41.190Z,3.30
2019-06-10T03:33:41.646Z,3.10
2019-06-10T03:34:42.003Z,3.00
2019-06-10T03:35:36.226Z,2.90
2019-06-10T03:36:35.214Z,3.10
2019-06-10T03:37:35.246Z,2.80
2019-06-10T03:38:37.109Z,3.00
2019-06-10T03:39:35.182Z,2.90
2019-06-10T03:40:35.168Z,2.90
2019-06-10T03:41:35.159Z,2.70
2019-06-10T03:42:35.146Z,3.00
2019-06-10T03:43:35.137Z,2.70
2019-06-10T03:44:35.139Z,2.80
2019-06-10T03:45:35.114Z,2.90
2019-06-10T03:46:35.104Z,2.90
2019-06-10T03:47:35.111Z,3.00
2019-06-10T03:48:35.080Z,2.80
2019-06-10T03:49:49.164Z,2.90
2019-06-10T03:50:36.060Z,2.80
2019-06-10T03:51:35.049Z,2.90
2019-06-10T03:52:35.037Z,2.80
2019-06-10T03:53:35.053Z,3.00
2019-06-10T03:54:35.016Z,3.30
2019-06-10T03:55:35.001Z,2.60
2019-06-10T03:56:34.991Z,3.30
2019-06-10T03:57:34.987Z,3.00
2019-06-10T03:58:34.986Z,3.20
2019-06-10T03:59:34.959Z,3.00
2019-06-10T04:00:37.075Z,2.80
2019-06-10T04:01:34.937Z,3.00
2019-06-10T04:02:34.922Z,3.00
2019-06-10T04:03:34.946Z,3.10
2019-06-10T04:04:34.901Z,3.00
2019-06-10T04:05:34.897Z,3.10
2019-06-10T04:06:34.896Z,3.20
2019-06-10T04:07:34.868Z,3.10
2019-06-10T04:08:34.857Z,3.10
2019-06-10T04:09:34.857Z,3.10
2019-06-10T04:10:34.835Z,2.90
2019-06-10T04:11:35.404Z,2.90
2019-06-10T04:12:34.812Z,2.80
2019-06-10T04:13:34.798Z,3.00
2019-06-10T04:14:34.806Z,3.00
2019-06-10T04:15:34.776Z,2.90
2019-06-10T04:16:34.777Z,3.10
2019-06-10T04:17:34.756Z,3.00
2019-06-10T04:18:34.745Z,3.20
2019-06-10T04:19:34.756Z,3.30
2019-06-10T04:20:34.739Z,3.10
2019-06-10T04:21:34.735Z,3.10
2019-06-10T04:22:34.701Z,3.10
2019-06-10T04:23:34.692Z,3.00
2019-06-10T04:24:34.700Z,2.90
2019-06-10T04:25:34.665Z,3.10
2019-06-10T04:26:34.656Z,3.00
2019-06-10T04:27:34.647Z,3.10
2019-06-10T04:28:34.636Z,3.20
2019-06-10T04:29:34.640Z,3.20
2019-06-10T04:30:34.611Z,3.40
2019-06-10T04:31:34.601Z,3.40
2019-06-10T04:32:34.588Z,3.20
2019-06-10T04:33:34.575Z,3.10
2019-06-10T04:34:34.605Z,2.90
2019-06-10T04:35:34.554Z,3.20
2019-06-10T04:36:34.552Z,3.40
2019-06-10T04:37:34.535Z,3.20
2019-06-10T04:38:34.524Z,3.50
2019-06-10T04:39:34.532Z,3.30
2019-06-10T04:40:34.536Z,3.00
2019-06-10T04:41:34.488Z,3.30
2019-06-10T04:42:34.479Z,3.20
2019-06-10T04:43:34.466Z,3.30
2019-06-10T04:44:34.456Z,3.50
2019-06-10T04:45:34.452Z,3.30
2019-06-10T04:46:34.447Z,3.40
2019-06-10T04:47:34.422Z,3.40
2019-06-10T04:48:34.415Z,3.10
2019-06-10T04:49:34.405Z,3.10
2019-06-10T04:50:42.284Z,3.40
2019-06-10T04:51:35.394Z,3.50
2019-06-10T04:52:34.366Z,3.40
2019-06-10T04:53:34.354Z,3.10
2019-06-10T04:54:34.345Z,3.30
2019-06-10T04:55:34.347Z,3.40
2019-06-10T04:56:34.338Z,3.60
2019-06-10T04:57:34.327Z,3.30
2019-06-10T04:58:34.304Z,2.90
2019-06-10T04:59:34.288Z,3.30
2019-06-10T05:00:34.290Z,3.20
2019-06-10T05:01:34.269Z,3.30
2019-06-10T05:02:34.253Z,3.20
2019-06-10T05:03:34.256Z,3.70
2019-06-10T05:04:34.235Z,3.50
2019-06-10T05:05:34.223Z,3.50
2019-06-10T05:06:34.211Z,3.30
2019-06-10T05:07:37.148Z,3.40
2019-06-10T05:08:34.210Z,3.30
2019-06-10T05:09:34.185Z,3.20
2019-06-10T05:10:34.173Z,3.40
2019-06-10T05:11:34.160Z,3.20
2019-06-10T05:12:34.160Z,3.10
2019-06-10T05:13:34.138Z,3.20
2019-06-10T05:14:34.128Z,3.20
2019-06-10T05:15:34.885Z,3.20
2019-06-10T05:16:35.818Z,3.40
2019-06-10T05:17:34.496Z,3.20
2019-06-10T05:18:34.113Z,3.30
2019-06-10T05:19:34.082Z,3.50
2019-06-10T05:20:51.203Z,3.70
2019-06-10T05:21:35.049Z,3.30
2019-06-10T05:22:34.047Z,3.30
2019-06-10T05:23:34.025Z,3.30
2019-06-10T05:24:34.491Z,3.40
2019-06-10T05:25:34.002Z,3.50
2019-06-10T05:26:33.992Z,3.50
2019-06-10T05:27:33.995Z,3.30
2019-06-10T05:28:34.411Z,3.20
2019-06-10T05:29:34.268Z,3.10
2019-06-10T05:30:34.212Z,3.30
2019-06-10T05:31:35.034Z,3.60
2019-06-10T05:32:33.925Z,3.30
2019-06-10T05:33:33.914Z,3.30
2019-06-10T05:34:34.790Z,3.70
2019-06-10T05:35:34.105Z,3.30
2019-06-10T05:36:34.641Z,3.50
2019-06-10T05:37:34.089Z,3.50
2019-06-10T05:38:35.282Z,3.30
2019-06-10T05:39:35.082Z,3.60
2019-06-10T05:40:34.255Z,3.80
2019-06-10T05:41:35.044Z,3.70
2019-06-10T05:42:35.940Z,3.60
2019-06-10T05:43:34.641Z,3.60
2019-06-10T05:44:34.635Z,3.70
2019-06-10T05:45:35.071Z,3.70
2019-06-10T05:46:35.043Z,3.60
2019-06-10T05:47:36.002Z,4.20
2019-06-10T05:48:35.168Z,3.70
2019-06-10T05:49:36.080Z,3.50
2019-06-10T05:50:34.991Z,3.70
2019-06-10T05:51:35.297Z,3.60
2019-06-10T05:52:35.110Z,3.90
2019-06-10T05:53:35.428Z,3.70
2019-06-10T05:54:35.322Z,3.60
2019-06-10T05:55:35.058Z,3.40
2019-06-10T05:56:35.364Z,4.00
2019-06-10T05:57:35.478Z,3.60
2019-06-10T05:58:35.858Z,3.50
2019-06-10T05:59:35.488Z,3.80
2019-06-10T06:00:35.422Z,3.80
2019-06-10T06:01:38.041Z,3.90
2019-06-10T06:02:35.427Z,3.40
2019-06-10T06:03:36.778Z,3.60
2019-06-10T06:04:34.660Z,3.90
2019-06-10T06:05:36.105Z,3.90
2019-06-10T06:06:35.338Z,3.60
2019-06-10T06:07:35.256Z,3.90
2019-06-10T06:08:35.412Z,4.00
2019-06-10T06:09:35.234Z,4.10
2019-06-10T06:10:35.450Z,3.70
2019-06-10T06:11:35.269Z,4.10
2019-06-10T06:12:35.336Z,3.80
2019-06-10T06:13:35.893Z,4.10
2019-06-10T06:14:35.637Z,4.00
2019-06-10T06:15:35.805Z,4.40
2019-06-10T06:16:36.110Z,4.10
2019-06-10T06:17:35.355Z,4.20
2019-06-10T06:18:36.344Z,4.00
2019-06-10T06:19:36.922Z,4.20
2019-06-10T06:20:35.934Z,4.20
2019-06-10T06:21:40.324Z,3.90
2019-06-10T06:22:35.704Z,4.10
2019-06-10T06:23:35.184Z,3.90
2019-06-10T06:24:35.519Z,4.10
2019-06-10T06:25:40.970Z,3.90
2019-06-10T06:26:37.894Z,4.60
2019-06-10T06:27:35.472Z,4.10
2019-06-10T06:28:35.997Z,4.10
2019-06-10T06:29:33.912Z,4.10
2019-06-10T06:30:34.860Z,4.00
2019-06-10T06:31:34.921Z,4.50
2019-06-10T06:32:35.239Z,4.20
2019-06-10T06:33:37.678Z,4.30
2019-06-10T06:34:35.932Z,3.60
2019-06-10T06:35:36.733Z,4.20
2019-06-10T06:36:36.589Z,4.00
2019-06-10T06:37:36.436Z,4.10
2019-06-10T06:38:34.053Z,4.30
2019-06-10T06:39:34.738Z,4.00
2019-06-10T06:40:35.615Z,4.00
2019-06-10T06:41:34.536Z,4.10
2019-06-10T06:42:35.052Z,3.80
2019-06-10T06:43:40.005Z,3.80
2019-06-10T06:44:37.342Z,4.20
2019-06-10T06:45:35.859Z,3.80
2019-06-10T06:46:37.521Z,4.10
2019-06-10T06:47:35.628Z,4.00
2019-06-10T06:48:37.011Z,3.50
2019-06-10T06:49:35.489Z,4.20
2019-06-10T06:50:35.615Z,3.90
2019-06-10T06:51:43.487Z,4.30
2019-06-10T06:53:04.846Z,3.60
2019-06-10T06:53:44.140Z,4.00
2019-06-10T06:54:36.101Z,3.80
2019-06-10T06:55:33.729Z,4.20
2019-06-10T06:56:36.155Z,3.80
2019-06-10T06:57:34.184Z,3.80
2019-06-10T06:58:35.195Z,3.90
2019-06-10T06:59:34.277Z,3.70
2019-06-10T07:00:51.386Z,3.90
2019-06-10T07:01:37.317Z,4.00
2019-06-10T07:02:34.572Z,3.70
2019-06-10T07:03:35.280Z,3.50
2019-06-10T07:04:35.470Z,3.80
2019-06-10T07:05:35.534Z,3.90
2019-06-10T07:06:34.525Z,3.90
2019-06-10T07:07:34.557Z,3.70
2019-06-10T07:08:34.322Z,3.70
2019-06-10T07:09:34.620Z,3.90
2019-06-10T07:10:34.065Z,4.20
2019-06-10T07:11:33.937Z,4.10
2019-06-10T07:12:33.773Z,4.00
2019-06-10T07:13:35.517Z,3.90
2019-06-10T07:14:36.792Z,3.70
2019-06-10T07:15:35.441Z,4.20
2019-06-10T07:16:34.511Z,3.80
2019-06-10T07:17:34.536Z,3.90
2019-06-10T07:18:38.916Z,3.90
2019-06-10T07:19:35.108Z,4.20
2019-06-10T07:20:36.302Z,4.00
2019-06-10T07:21:36.183Z,3.80
2019-06-10T07:22:36.520Z,4.10
2019-06-10T07:23:36.211Z,4.10
2019-06-10T07:24:35.811Z,4.10
2019-06-10T07:25:35.681Z,4.00
2019-06-10T07:26:34.410Z,4.30
2019-06-10T07:27:35.804Z,4.10
2019-06-10T07:28:35.804Z,4.10
2019-06-10T07:29:34.275Z,3.90
2019-06-10T07:30:36.944Z,3.80
2019-06-10T07:31:36.157Z,3.80
2019-06-10T07:32:34.297Z,3.80
2019-06-10T07:33:34.582Z,3.90
2019-06-10T07:34:35.024Z,3.60
2019-06-10T07:35:33.064Z,3.70
2019-06-10T07:36:34.182Z,3.60
2019-06-10T07:37:34.581Z,4.00
2019-06-10T07:38:33.854Z,4.10
2019-06-10T07:39:34.985Z,3.40
2019-06-10T07:40:33.413Z,3.60
2019-06-10T07:41:34.041Z,3.80
2019-06-10T07:42:33.258Z,3.70
2019-06-10T07:43:35.791Z,3.80
2019-06-10T07:44:34.898Z,3.70
2019-06-10T07:45:33.798Z,3.80
2019-06-10T07:46:33.521Z,3.40
2019-06-10T07:47:33.826Z,3.50
2019-06-10T07:48:33.503Z,3.10
2019-06-10T07:49:33.868Z,3.50
2019-06-10T07:50:33.316Z,3.10
2019-06-10T07:51:33.023Z,3.60
2019-06-10T07:52:33.186Z,3.60
2019-06-10T07:53:34.337Z,3.40
2019-06-10T07:54:33.289Z,3.40
2019-06-10T07:55:33.222Z,3.50
2019-06-10T07:56:38.163Z,3.70
2019-06-10T07:57:34.761Z,3.60
2019-06-10T07:58:34.781Z,3.60
2019-06-10T07:59:33.773Z,3.60
2019-06-10T08:00:33.697Z,3.10
2019-06-10T08:01:33.320Z,3.40
2019-06-10T08:02:33.952Z,3.20
2019-06-10T08:03:33.384Z,3.20
2019-06-10T08:04:33.568Z,3.50
2019-06-10T08:05:33.964Z,3.40
2019-06-10T08:06:33.511Z,3.70
2019-06-10T08:07:33.418Z,3.10
2019-06-10T08:08:32.857Z,3.30
2019-06-10T08:09:33.631Z,3.20
2019-06-10T08:10:32.795Z,3.00
2019-06-10T08:11:33.247Z,3.40
2019-06-10T08:12:32.605Z,3.00
2019-06-10T08:13:32.547Z,2.80
2019-06-10T08:14:32.974Z,2.90
2019-06-10T08:15:32.618Z,3.10
2019-06-10T08:16:32.726Z,3.10
2019-06-10T08:17:32.807Z,2.90
2019-06-10T08:18:39.462Z,3.00
2019-06-10T08:19:37.663Z,3.10
2019-06-10T08:20:33.121Z,3.10
2019-06-10T08:21:32.375Z,3.30
2019-06-10T08:22:37.254Z,3.20
2019-06-10T08:23:33.104Z,3.40
2019-06-10T08:24:32.957Z,3.10
2019-06-10T08:25:32.791Z,3.30
2019-06-10T08:26:32.513Z,3.20
2019-06-10T08:27:33.598Z,3.30
2019-06-10T08:28:33.222Z,3.40
2019-06-10T08:29:33.063Z,3.00
2019-06-10T08:30:32.936Z,3.20
2019-06-10T08:31:33.281Z,3.30
2019-06-10T08:32:33.467Z,3.00
2019-06-10T08:33:33.082Z,2.80
2019-06-10T08:34:32.921Z,2.90
2019-06-10T08:35:39.308Z,3.50
2019-06-10T08:36:33.484Z,3.00
2019-06-10T08:37:33.186Z,2.60
2019-06-10T08:38:32.910Z,3.00
2019-06-10T08:39:33.488Z,2.80
2019-06-10T08:40:32.586Z,2.80
2019-06-10T08:41:32.304Z,3.00
2019-06-10T08:42:32.382Z,3.20
2019-06-10T08:43:33.189Z,3.00
2019-06-10T08:44:32.788Z,3.10
2019-06-10T08:45:33.309Z,3.10
2019-06-10T08:46:32.948Z,3.30
2019-06-10T08:47:32.734Z,3.10
2019-06-10T08:48:32.955Z,3.60
2019-06-10T08:49:32.726Z,3.20
2019-06-10T08:50:33.677Z,2.90
2019-06-10T08:51:32.460Z,2.70
2019-06-10T08:52:49.386Z,3.00
2019-06-10T08:53:33.211Z,2.70
2019-06-10T08:54:32.388Z,2.90
2019-06-10T08:55:33.435Z,3.30
2019-06-10T08:56:32.747Z,3.10
2019-06-10T08:57:33.525Z,3.50
2019-06-10T08:58:33.096Z,3.00
2019-06-10T08:59:32.612Z,3.30
2019-06-10T09:00:33.197Z,2.90
2019-06-10T09:01:33.468Z,3.20
2019-06-10T09:02:33.440Z,3.10
2019-06-10T09:03:32.450Z,3.10
2019-06-10T09:04:33.112Z,2.80
2019-06-10T09:05:32.386Z,3.10
2019-06-10T09:06:32.903Z,3.00
2019-06-10T09:07:32.333Z,3.10
2019-06-10T09:08:32.660Z,3.10
2019-06-10T09:09:33.523Z,3.00
2019-06-10T09:10:33.875Z,3.00
2019-06-10T09:11:32.881Z,2.80
2019-06-10T09:12:36.403Z,2.80
2019-06-10T09:13:33.692Z,3.10
2019-06-10T09:14:32.602Z,3.10
2019-06-10T09:15:32.477Z,2.90
2019-06-10T09:16:32.419Z,2.90
2019-06-10T09:17:33.808Z,3.10
2019-06-10T09:18:33.712Z,3.30
2019-06-10T09:19:33.174Z,3.20
2019-06-10T09:20:33.177Z,2.90
2019-06-10T09:21:33.028Z,2.80
2019-06-10T09:22:32.703Z,3.00
2019-06-10T09:23:33.142Z,3.30
2019-06-10T09:24:32.827Z,2.70
2019-06-10T09:25:33.342Z,2.60
2019-06-10T09:26:33.710Z,2.90
2019-06-10T09:27:32.766Z,2.80
2019-06-10T09:28:32.871Z,2.80
2019-06-10T09:29:32.865Z,2.80
2019-06-10T09:30:33.421Z,2.70
2019-06-10T09:31:33.173Z,2.80
2019-06-10T09:32:32.474Z,2.80
2019-06-10T09:33:33.108Z,2.80
2019-06-10T09:34:33.107Z,2.80
2019-06-10T09:35:32.326Z,2.80
2019-06-10T09:36:32.517Z,3.30
2019-06-10T09:37:32.081Z,3.00
2019-06-10T09:38:33.390Z,3.50
2019-06-10T09:39:32.904Z,3.40
2019-06-10T09:40:33.376Z,3.10
2019-06-10T09:41:40.187Z,2.90
2019-06-10T09:42:33.339Z,2.80
2019-06-10T09:43:33.324Z,2.90
2019-06-10T09:44:33.380Z,2.90
2019-06-10T09:45:33.279Z,3.10
2019-06-10T09:46:33.082Z,2.80
2019-06-10T09:47:34.024Z,3.30
2019-06-10T09:48:33.554Z,2.80
2019-06-10T09:49:33.077Z,2.50
2019-06-10T09:50:33.314Z,3.30
2019-06-10T09:51:32.402Z,3.20
2019-06-10T09:52:32.862Z,3.50
2019-06-10T09:53:41.229Z,3.40
2019-06-10T09:54:33.526Z,3.00
2019-06-10T09:55:32.861Z,3.20
2019-06-10T09:56:33.098Z,3.30
2019-06-10T09:57:32.172Z,3.00
2019-06-10T09:58:32.925Z,2.90
2019-06-10T09:59:32.261Z,2.80
2019-06-10T10:00:33.195Z,3.10
2019-06-10T10:01:32.693Z,2.80
2019-06-10T10:02:33.176Z,2.80
2019-06-10T10:03:32.904Z,3.00
2019-06-10T10:04:32.735Z,3.20
2019-06-10T10:05:33.686Z,3.00
2019-06-10T10:06:32.741Z,3.00
2019-06-10T10:07:32.414Z,2.60
2019-06-10T10:08:32.701Z,3.00
2019-06-10T10:09:34.431Z,2.80
2019-06-10T10:10:32.744Z,2.80
2019-06-10T10:11:32.106Z,2.60
2019-06-10T10:12:32.706Z,2.90
2019-06-10T10:13:34.898Z,3.20
2019-06-10T10:14:33.372Z,3.10
2019-06-10T10:15:34.411Z,3.30
2019-06-10T10:16:33.923Z,3.50
2019-06-10T10:17:33.398Z,3.20
2019-06-10T10:18:32.964Z,3.10
2019-06-10T10:19:30.998Z,3.10
2019-06-10T10:20:33.972Z,2.90
2019-06-10T10:21:30.957Z,2.90
2019-06-10T10:22:33.344Z,3.20
2019-06-10T10:23:49.096Z,3.30
2019-06-10T10:24:34.068Z,3.40
2019-06-10T10:25:32.814Z,3.40
2019-06-10T10:26:31.360Z,3.10
2019-06-10T10:27:32.340Z,3.20
2019-06-10T10:28:33.208Z,3.40
2019-06-10T10:29:32.843Z,3.20
2019-06-10T10:30:33.214Z,3.00
2019-06-10T10:31:32.403Z,2.90
2019-06-10T10:32:33.269Z,3.10
2019-06-10T10:33:33.279Z,3.00
2019-06-10T10:34:33.186Z,2.90
2019-06-10T10:35:32.623Z,2.90
2019-06-10T10:36:33.388Z,2.90
2019-06-10T10:37:32.275Z,3.20
2019-06-10T10:38:33.251Z,3.00
2019-06-10T10:39:32.728Z,3.00
2019-06-10T10:40:32.593Z,2.90
2019-06-10T10:41:32.317Z,2.60
2019-06-10T10:42:42.763Z,2.70
2019-06-10T10:43:34.048Z,2.60
2019-06-10T10:44:30.746Z,3.00
2019-06-10T10:45:31.201Z,2.60
2019-06-10T10:46:32.630Z,2.50
2019-06-10T10:47:33.505Z,2.70
2019-06-10T10:48:33.237Z,2.70
2019-06-10T10:49:30.741Z,2.90
2019-06-10T10:50:30.697Z,2.70
2019-06-10T10:51:32.627Z,2.60
2019-06-10T10:52:32.872Z,2.90
2019-06-10T10:53:32.826Z,2.40
2019-06-10T10:54:36.066Z,2.80
2019-06-10T10:55:32.931Z,2.70
2019-06-10T10:56:30.656Z,2.40
2019-06-10T10:57:32.951Z,2.60
2019-06-10T10:58:33.029Z,2.60
2019-06-10T10:59:33.179Z,2.50
2019-06-10T11:00:37.191Z,2.40
2019-06-10T11:01:33.394Z,2.40
2019-06-10T11:02:32.189Z,2.50
2019-06-10T11:03:33.340Z,2.80
2019-06-10T11:04:32.795Z,2.50
2019-06-10T11:05:33.107Z,2.50
2019-06-10T11:06:32.349Z,2.70
2019-06-10T11:07:33.360Z,2.50
2019-06-10T11:08:33.318Z,2.80
2019-06-10T11:09:32.875Z,3.00
2019-06-10T11:10:33.014Z,2.60
2019-06-10T11:11:33.125Z,2.90
2019-06-10T11:12:33.085Z,2.70
2019-06-10T11:13:32.683Z,2.60
2019-06-10T11:14:30.496Z,3.10
2019-06-10T11:15:33.796Z,2.70
2019-06-10T11:16:33.090Z,2.70
2019-06-10T11:17:30.465Z,2.90
2019-06-10T11:18:30.470Z,3.10
2019-06-10T11:19:32.853Z,2.90
2019-06-10T11:20:33.512Z,3.00
2019-06-10T11:21:32.625Z,2.70
2019-06-10T11:22:32.732Z,2.70
2019-06-10T11:23:33.373Z,2.70
2019-06-10T11:24:39.976Z,2.80
2019-06-10T11:25:33.247Z,3.30
2019-06-10T11:26:32.862Z,2.70
2019-06-10T11:27:32.999Z,2.70
2019-06-10T11:28:32.172Z,3.10
2019-06-10T11:29:32.705Z,3.00
2019-06-10T11:30:32.473Z,3.00
2019-06-10T11:31:32.699Z,2.90
2019-06-10T11:32:32.617Z,2.60
2019-06-10T11:33:32.664Z,2.80
2019-06-10T11:34:30.331Z,2.70
2019-06-10T11:35:30.309Z,2.90
2019-06-10T11:36:30.302Z,2.70
2019-06-10T11:37:30.292Z,2.80
2019-06-10T11:38:32.602Z,2.80
2019-06-10T11:39:30.294Z,2.90
2019-06-10T11:40:30.269Z,3.10
2019-06-10T11:41:32.413Z,2.60
2019-06-10T11:42:30.247Z,2.40
2019-06-10T11:43:32.883Z,2.80
2019-06-10T11:44:30.241Z,2.90
2019-06-10T11:45:32.693Z,3.10
2019-06-10T11:46:32.348Z,3.10
2019-06-10T11:47:30.337Z,3.30
2019-06-10T11:48:32.568Z,2.60
2019-06-10T11:49:30.200Z,3.00
2019-06-10T11:50:30.177Z,3.00
2019-06-10T11:51:30.166Z,2.60
2019-06-10T11:52:32.810Z,2.70
2019-06-10T11:53:30.150Z,3.00
2019-06-10T11:54:32.575Z,2.70
2019-06-10T11:55:30.135Z,2.90
2019-06-10T11:56:30.126Z,3.10
2019-06-10T11:57:32.364Z,2.80
2019-06-10T11:58:30.103Z,2.80
2019-06-10T11:59:32.598Z,3.00
2019-06-10T12:00:32.898Z,2.90
2019-06-10T12:01:30.937Z,4.30
2019-06-10T12:02:30.069Z,5.20
2019-06-10T12:03:30.076Z,3.90
2019-06-10T12:04:30.073Z,12.20
2019-06-10T12:05:32.468Z,3.50
2019-06-10T12:06:30.042Z,3.50
2019-06-10T12:07:30.041Z,2.90
2019-06-10T12:08:32.680Z,3.30
2019-06-10T12:09:30.029Z,2.80
2019-06-10T12:10:32.803Z,2.80
2019-06-10T12:11:29.994Z,3.20
2019-06-10T12:12:33.437Z,3.20
2019-06-10T12:13:29.978Z,3.10
2019-06-10T12:14:32.827Z,2.50
2019-06-10T12:15:32.258Z,2.80
2019-06-10T12:17:15.590Z,2.90
2019-06-10T12:17:42.977Z,2.80
2019-06-10T12:18:33.095Z,2.60
2019-06-10T12:19:33.568Z,2.70
2019-06-10T12:20:29.931Z,2.60
2019-06-10T12:21:32.876Z,2.70
2019-06-10T12:22:29.888Z,2.90
2019-06-10T12:23:29.872Z,2.90
2019-06-10T12:24:32.860Z,2.90
2019-06-10T12:25:36.758Z,2.40
2019-06-10T12:26:32.831Z,2.80
2019-06-10T12:27:29.837Z,2.70
2019-06-10T12:28:32.472Z,2.70
2019-06-10T12:29:29.812Z,2.50
2019-06-10T12:30:29.804Z,2.90
2019-06-10T12:31:29.806Z,2.40
2019-06-10T12:32:29.816Z,2.50
2019-06-10T12:33:29.789Z,2.70
2019-06-10T12:34:32.997Z,2.80
2019-06-10T12:35:29.753Z,2.80
2019-06-10T12:36:29.756Z,2.50
2019-06-10T12:37:29.746Z,2.60
2019-06-10T12:38:32.511Z,2.70
2019-06-10T12:39:29.713Z,2.70
2019-06-10T12:40:29.710Z,2.50
2019-06-10T12:41:29.689Z,3.00
2019-06-10T12:42:29.707Z,2.60
2019-06-10T12:43:29.673Z,2.60
2019-06-10T12:44:29.659Z,2.60
2019-06-10T12:45:29.649Z,2.90
2019-06-10T12:46:29.640Z,2.80
2019-06-10T12:47:29.631Z,3.00
2019-06-10T12:48:29.632Z,2.80
2019-06-10T12:49:32.000Z,2.60
2019-06-10T12:50:30.197Z,2.70
2019-06-10T12:51:29.588Z,3.00
2019-06-10T12:52:29.628Z,2.80
2019-06-10T12:53:32.398Z,2.70
2019-06-10T12:54:29.557Z,2.50
2019-06-10T12:55:40.259Z,2.90
2019-06-10T12:56:32.636Z,2.50
2019-06-10T12:57:29.524Z,2.70
2019-06-10T12:58:29.530Z,3.00
2019-06-10T12:59:29.521Z,2.50
2019-06-10T13:00:29.500Z,2.80
2019-06-10T13:01:29.493Z,3.00
2019-06-10T13:02:33.977Z,2.50
2019-06-10T13:03:32.752Z,5.90
2019-06-10T13:04:29.459Z,4.90
2019-06-10T13:05:29.444Z,4.70
2019-06-10T13:06:29.437Z,3.90
2019-06-10T13:07:29.429Z,3.30
2019-06-10T13:08:29.430Z,3.10
2019-06-10T13:09:29.409Z,3.00
2019-06-10T13:10:29.409Z,3.00
2019-06-10T13:11:29.380Z,2.80
2019-06-10T13:12:29.375Z,2.80
2019-06-10T13:13:29.377Z,3.10
2019-06-10T13:14:29.361Z,2.90
2019-06-10T13:15:29.341Z,3.10
2019-06-10T13:16:29.332Z,3.30
2019-06-10T13:17:29.323Z,2.90
2019-06-10T13:18:29.346Z,2.90